sensor_id;sensor_type;location;lat;lon;timestamp;P1;durP1;ratioP1;P2;durP2;ratioP2
14256;SDS011;7212;53.254;6.456;2022-07-23T00:00:08;2.75;;;2.13;;
14256;SDS011;7212;53.254;6.456;2022-07-23T00:02:34;2.00;;;1.88;;
14256;SDS011;7212;53.254;6.456;2022-07-23T00:05:00;2.05;;;1.77;;
14256;SDS011;7212;53.254;6.456;2022-07-23T00:07:25;2.00;;;1.90;;
14256;SDS011;7212;53.254;6.456;2022-07-23T00:09:51;2.00;;;1.90;;
14256;SDS011;7212;53.254;6.456;2022-07-23T00:12:17;2.83;;;2.22;;
14256;SDS011;7212;53.254;6.456;2022-07-23T00:14:42;1.90;;;1.80;;
14256;SDS011;7212;53.254;6.456;2022-07-23T00:17:08;2.50;;;1.83;;
14256;SDS011;7212;53.254;6.456;2022-07-23T00:19:33;1.98;;;1.88;;
14256;SDS011;7212;53.254;6.456;2022-07-23T00:21:59;2.25;;;2.05;;
14256;SDS011;7212;53.254;6.456;2022-07-23T00:24:25;2.03;;;1.83;;
14256;SDS011;7212;53.254;6.456;2022-07-23T00:26:50;2.10;;;1.90;;
14256;SDS011;7212;53.254;6.456;2022-07-23T00:29:16;2.58;;;1.80;;
14256;SDS011;7212;53.254;6.456;2022-07-23T00:31:41;2.42;;;2.22;;
14256;SDS011;7212;53.254;6.456;2022-07-23T00:34:07;2.28;;;2.08;;
14256;SDS011;7212;53.254;6.456;2022-07-23T00:36:33;2.03;;;1.92;;
14256;SDS011;7212;53.254;6.456;2022-07-23T00:38:58;1.95;;;1.85;;
14256;SDS011;7212;53.254;6.456;2022-07-23T00:41:24;2.20;;;2.00;;
14256;SDS011;7212;53.254;6.456;2022-07-23T00:43:49;2.28;;;2.08;;
14256;SDS011;7212;53.254;6.456;2022-07-23T00:46:21;2.05;;;1.95;;
14256;SDS011;7212;53.254;6.456;2022-07-23T00:48:47;2.00;;;1.70;;
14256;SDS011;7212;53.254;6.456;2022-07-23T00:51:17;2.00;;;1.90;;
14256;SDS011;7212;53.254;6.456;2022-07-23T00:53:43;3.00;;;2.00;;
14256;SDS011;7212;53.254;6.456;2022-07-23T00:56:10;2.25;;;2.10;;
14256;SDS011;7212;53.254;6.456;2022-07-23T00:58:36;3.17;;;2.40;;
14256;SDS011;7212;53.254;6.456;2022-07-23T01:01:03;1.77;;;1.67;;
14256;SDS011;7212;53.254;6.456;2022-07-23T01:03:29;2.30;;;2.20;;
14256;SDS011;7212;53.254;6.456;2022-07-23T01:05:55;2.30;;;2.10;;
14256;SDS011;7212;53.254;6.456;2022-07-23T01:08:21;2.20;;;2.10;;
14256;SDS011;7212;53.254;6.456;2022-07-23T01:10:47;2.20;;;2.00;;
14256;SDS011;7212;53.254;6.456;2022-07-23T01:13:13;2.30;;;1.85;;
14256;SDS011;7212;53.254;6.456;2022-07-23T01:15:39;2.50;;;1.98;;
14256;SDS011;7212;53.254;6.456;2022-07-23T01:18:05;2.10;;;1.90;;
14256;SDS011;7212;53.254;6.456;2022-07-23T01:20:32;2.15;;;1.95;;
14256;SDS011;7212;53.254;6.456;2022-07-23T01:22:58;2.20;;;2.00;;
14256;SDS011;7212;53.254;6.456;2022-07-23T01:25:24;2.05;;;1.90;;
14256;SDS011;7212;53.254;6.456;2022-07-23T01:27:53;2.20;;;2.10;;
14256;SDS011;7212;53.254;6.456;2022-07-23T01:30:19;2.25;;;2.10;;
14256;SDS011;7212;53.254;6.456;2022-07-23T01:32:45;2.38;;;2.15;;
14256;SDS011;7212;53.254;6.456;2022-07-23T01:35:11;2.33;;;2.13;;
14256;SDS011;7212;53.254;6.456;2022-07-23T01:37:37;4.00;;;2.20;;
14256;SDS011;7212;53.254;6.456;2022-07-23T01:40:03;2.28;;;2.10;;
14256;SDS011;7212;53.254;6.456;2022-07-23T01:42:30;1.98;;;1.77;;
14256;SDS011;7212;53.254;6.456;2022-07-23T01:44:55;2.10;;;2.00;;
14256;SDS011;7212;53.254;6.456;2022-07-23T01:47:21;2.42;;;2.20;;
14256;SDS011;7212;53.254;6.456;2022-07-23T01:49:47;3.03;;;2.22;;
14256;SDS011;7212;53.254;6.456;2022-07-23T01:52:12;2.05;;;1.85;;
14256;SDS011;7212;53.254;6.456;2022-07-23T01:54:38;2.30;;;2.10;;
14256;SDS011;7212;53.254;6.456;2022-07-23T01:57:04;2.75;;;2.40;;
14256;SDS011;7212;53.254;6.456;2022-07-23T01:59:31;2.35;;;2.05;;
14256;SDS011;7212;53.254;6.456;2022-07-23T02:01:56;2.33;;;2.13;;
14256;SDS011;7212;53.254;6.456;2022-07-23T02:04:22;2.60;;;2.35;;
14256;SDS011;7212;53.254;6.456;2022-07-23T02:06:49;2.65;;;2.22;;
14256;SDS011;7212;53.254;6.456;2022-07-23T02:09:15;2.90;;;2.42;;
14256;SDS011;7212;53.254;6.456;2022-07-23T02:11:42;2.67;;;2.47;;
14256;SDS011;7212;53.254;6.456;2022-07-23T02:14:08;2.53;;;2.33;;
14256;SDS011;7212;53.254;6.456;2022-07-23T02:16:34;2.47;;;2.28;;
14256;SDS011;7212;53.254;6.456;2022-07-23T02:18:59;2.25;;;2.10;;
14256;SDS011;7212;53.254;6.456;2022-07-23T02:21:25;2.60;;;2.40;;
14256;SDS011;7212;53.254;6.456;2022-07-23T02:23:51;2.35;;;2.22;;
14256;SDS011;7212;53.254;6.456;2022-07-23T02:26:16;2.53;;;2.33;;
14256;SDS011;7212;53.254;6.456;2022-07-23T02:28:42;2.40;;;2.20;;
14256;SDS011;7212;53.254;6.456;2022-07-23T02:31:09;2.30;;;2.20;;
14256;SDS011;7212;53.254;6.456;2022-07-23T02:33:34;2.20;;;2.03;;
14256;SDS011;7212;53.254;6.456;2022-07-23T02:36:00;2.40;;;2.20;;
14256;SDS011;7212;53.254;6.456;2022-07-23T02:38:26;2.30;;;2.10;;
14256;SDS011;7212;53.254;6.456;2022-07-23T02:40:51;2.30;;;2.20;;
14256;SDS011;7212;53.254;6.456;2022-07-23T02:43:17;2.40;;;2.20;;
14256;SDS011;7212;53.254;6.456;2022-07-23T02:45:42;2.25;;;2.05;;
14256;SDS011;7212;53.254;6.456;2022-07-23T02:48:08;2.60;;;2.40;;
14256;SDS011;7212;53.254;6.456;2022-07-23T02:50:33;2.17;;;1.98;;
14256;SDS011;7212;53.254;6.456;2022-07-23T02:52:59;2.60;;;2.40;;
14256;SDS011;7212;53.254;6.456;2022-07-23T02:55:25;2.38;;;2.17;;
14256;SDS011;7212;53.254;6.456;2022-07-23T02:57:51;2.60;;;2.40;;
14256;SDS011;7212;53.254;6.456;2022-07-23T03:00:17;2.50;;;2.30;;
14256;SDS011;7212;53.254;6.456;2022-07-23T03:02:43;2.60;;;2.40;;
14256;SDS011;7212;53.254;6.456;2022-07-23T03:05:08;2.80;;;2.60;;
14256;SDS011;7212;53.254;6.456;2022-07-23T03:07:34;2.58;;;2.42;;
14256;SDS011;7212;53.254;6.456;2022-07-23T03:09:59;3.00;;;2.30;;
14256;SDS011;7212;53.254;6.456;2022-07-23T03:12:25;2.50;;;2.30;;
14256;SDS011;7212;53.254;6.456;2022-07-23T03:14:51;2.60;;;2.40;;
14256;SDS011;7212;53.254;6.456;2022-07-23T03:17:16;3.80;;;2.50;;
14256;SDS011;7212;53.254;6.456;2022-07-23T03:19:42;2.58;;;2.38;;
14256;SDS011;7212;53.254;6.456;2022-07-23T03:22:08;2.83;;;2.45;;
14256;SDS011;7212;53.254;6.456;2022-07-23T03:24:33;2.72;;;2.53;;
14256;SDS011;7212;53.254;6.456;2022-07-23T03:27:17;2.78;;;2.58;;
14256;SDS011;7212;53.254;6.456;2022-07-23T03:29:43;2.50;;;2.30;;
14256;SDS011;7212;53.254;6.456;2022-07-23T03:32:09;2.60;;;2.40;;
14256;SDS011;7212;53.254;6.456;2022-07-23T03:34:34;2.95;;;2.53;;
14256;SDS011;7212;53.254;6.456;2022-07-23T03:37:00;2.47;;;2.28;;
14256;SDS011;7212;53.254;6.456;2022-07-23T03:39:26;2.50;;;2.30;;
14256;SDS011;7212;53.254;6.456;2022-07-23T03:41:52;2.45;;;2.20;;
14256;SDS011;7212;53.254;6.456;2022-07-23T03:44:17;2.45;;;2.30;;
14256;SDS011;7212;53.254;6.456;2022-07-23T03:46:43;2.90;;;2.70;;
14256;SDS011;7212;53.254;6.456;2022-07-23T03:49:08;2.67;;;2.47;;
14256;SDS011;7212;53.254;6.456;2022-07-23T03:51:34;2.40;;;2.20;;
14256;SDS011;7212;53.254;6.456;2022-07-23T03:54:00;3.00;;;2.80;;
14256;SDS011;7212;53.254;6.456;2022-07-23T03:56:26;2.90;;;2.60;;
14256;SDS011;7212;53.254;6.456;2022-07-23T03:58:51;2.80;;;2.60;;
14256;SDS011;7212;53.254;6.456;2022-07-23T04:01:17;2.67;;;2.47;;
14256;SDS011;7212;53.254;6.456;2022-07-23T04:03:42;3.00;;;2.67;;
14256;SDS011;7212;53.254;6.456;2022-07-23T04:06:08;2.53;;;2.33;;
14256;SDS011;7212;53.254;6.456;2022-07-23T04:08:34;2.90;;;2.70;;
14256;SDS011;7212;53.254;6.456;2022-07-23T04:10:59;2.47;;;2.30;;
14256;SDS011;7212;53.254;6.456;2022-07-23T04:13:25;2.90;;;2.70;;
14256;SDS011;7212;53.254;6.456;2022-07-23T04:15:51;2.90;;;2.70;;
14256;SDS011;7212;53.254;6.456;2022-07-23T04:18:17;2.90;;;2.40;;
14256;SDS011;7212;53.254;6.456;2022-07-23T04:20:43;2.70;;;2.50;;
14256;SDS011;7212;53.254;6.456;2022-07-23T04:23:09;2.72;;;2.50;;
14256;SDS011;7212;53.254;6.456;2022-07-23T04:25:35;2.67;;;2.42;;
14256;SDS011;7212;53.254;6.456;2022-07-23T04:28:00;2.90;;;2.70;;
14256;SDS011;7212;53.254;6.456;2022-07-23T04:30:26;3.13;;;2.92;;
14256;SDS011;7212;53.254;6.456;2022-07-23T04:32:52;3.03;;;2.80;;
14256;SDS011;7212;53.254;6.456;2022-07-23T04:35:18;2.80;;;2.50;;
14256;SDS011;7212;53.254;6.456;2022-07-23T04:37:43;3.05;;;2.80;;
14256;SDS011;7212;53.254;6.456;2022-07-23T04:40:09;3.20;;;2.90;;
14256;SDS011;7212;53.254;6.456;2022-07-23T04:42:36;3.05;;;2.80;;
14256;SDS011;7212;53.254;6.456;2022-07-23T04:45:01;2.90;;;2.60;;
14256;SDS011;7212;53.254;6.456;2022-07-23T04:47:28;2.97;;;2.78;;
14256;SDS011;7212;53.254;6.456;2022-07-23T04:49:54;3.13;;;2.60;;
14256;SDS011;7212;53.254;6.456;2022-07-23T04:52:20;3.20;;;2.88;;
14256;SDS011;7212;53.254;6.456;2022-07-23T04:54:45;3.22;;;2.90;;
14256;SDS011;7212;53.254;6.456;2022-07-23T04:57:11;2.67;;;2.50;;
14256;SDS011;7212;53.254;6.456;2022-07-23T04:59:36;2.70;;;2.50;;
14256;SDS011;7212;53.254;6.456;2022-07-23T05:02:02;2.65;;;2.45;;
14256;SDS011;7212;53.254;6.456;2022-07-23T05:04:28;2.72;;;2.53;;
14256;SDS011;7212;53.254;6.456;2022-07-23T05:06:53;2.30;;;2.10;;
14256;SDS011;7212;53.254;6.456;2022-07-23T05:09:19;2.30;;;2.15;;
14256;SDS011;7212;53.254;6.456;2022-07-23T05:11:44;2.70;;;2.50;;
14256;SDS011;7212;53.254;6.456;2022-07-23T05:14:10;2.70;;;2.50;;
14256;SDS011;7212;53.254;6.456;2022-07-23T05:16:37;2.38;;;2.17;;
14256;SDS011;7212;53.254;6.456;2022-07-23T05:19:03;3.25;;;2.30;;
14256;SDS011;7212;53.254;6.456;2022-07-23T05:21:29;3.22;;;2.38;;
14256;SDS011;7212;53.254;6.456;2022-07-23T05:23:54;2.70;;;2.50;;
14256;SDS011;7212;53.254;6.456;2022-07-23T05:26:20;2.70;;;2.50;;
14256;SDS011;7212;53.254;6.456;2022-07-23T05:28:46;2.45;;;2.20;;
14256;SDS011;7212;53.254;6.456;2022-07-23T05:31:11;2.20;;;2.00;;
14256;SDS011;7212;53.254;6.456;2022-07-23T05:33:37;2.17;;;1.98;;
14256;SDS011;7212;53.254;6.456;2022-07-23T05:36:03;2.47;;;2.22;;
14256;SDS011;7212;53.254;6.456;2022-07-23T05:38:29;2.22;;;2.03;;
14256;SDS011;7212;53.254;6.456;2022-07-23T05:40:56;2.33;;;2.10;;
14256;SDS011;7212;53.254;6.456;2022-07-23T05:43:22;2.28;;;2.08;;
14256;SDS011;7212;53.254;6.456;2022-07-23T05:45:47;2.22;;;1.77;;
14256;SDS011;7212;53.254;6.456;2022-07-23T05:48:13;1.98;;;1.88;;
14256;SDS011;7212;53.254;6.456;2022-07-23T05:50:38;2.60;;;1.90;;
14256;SDS011;7212;53.254;6.456;2022-07-23T05:53:04;2.40;;;2.20;;
14256;SDS011;7212;53.254;6.456;2022-07-23T05:55:30;2.40;;;2.20;;
14256;SDS011;7212;53.254;6.456;2022-07-23T05:57:56;1.92;;;1.80;;
14256;SDS011;7212;53.254;6.456;2022-07-23T06:00:23;2.08;;;1.70;;
14256;SDS011;7212;53.254;6.456;2022-07-23T06:02:49;2.13;;;1.83;;
14256;SDS011;7212;53.254;6.456;2022-07-23T06:05:15;2.53;;;2.30;;
14256;SDS011;7212;53.254;6.456;2022-07-23T06:07:41;2.45;;;2.00;;
14256;SDS011;7212;53.254;6.456;2022-07-23T06:10:07;3.10;;;1.88;;
14256;SDS011;7212;53.254;6.456;2022-07-23T06:12:33;1.92;;;1.83;;
14256;SDS011;7212;53.254;6.456;2022-07-23T06:14:59;2.20;;;2.00;;
14256;SDS011;7212;53.254;6.456;2022-07-23T06:17:25;2.45;;;1.92;;
14256;SDS011;7212;53.254;6.456;2022-07-23T06:19:52;2.42;;;2.22;;
14256;SDS011;7212;53.254;6.456;2022-07-23T06:22:18;2.03;;;1.85;;
14256;SDS011;7212;53.254;6.456;2022-07-23T06:24:43;2.20;;;1.63;;
14256;SDS011;7212;53.254;6.456;2022-07-23T06:27:09;2.00;;;1.80;;
14256;SDS011;7212;53.254;6.456;2022-07-23T06:29:35;3.17;;;1.88;;
14256;SDS011;7212;53.254;6.456;2022-07-23T06:32:00;2.28;;;1.80;;
14256;SDS011;7212;53.254;6.456;2022-07-23T06:34:26;1.98;;;1.88;;
14256;SDS011;7212;53.254;6.456;2022-07-23T06:36:52;2.00;;;1.90;;
14256;SDS011;7212;53.254;6.456;2022-07-23T06:39:17;2.45;;;1.70;;
14256;SDS011;7212;53.254;6.456;2022-07-23T06:41:43;1.67;;;1.48;;
14256;SDS011;7212;53.254;6.456;2022-07-23T06:44:09;2.33;;;1.90;;
14256;SDS011;7212;53.254;6.456;2022-07-23T06:46:35;1.55;;;1.45;;
14256;SDS011;7212;53.254;6.456;2022-07-23T06:49:00;1.70;;;1.60;;
14256;SDS011;7212;53.254;6.456;2022-07-23T06:51:26;1.70;;;1.60;;
14256;SDS011;7212;53.254;6.456;2022-07-23T06:53:52;1.70;;;1.40;;
14256;SDS011;7212;53.254;6.456;2022-07-23T06:56:17;1.55;;;1.42;;
14256;SDS011;7212;53.254;6.456;2022-07-23T06:58:43;1.98;;;1.52;;
14256;SDS011;7212;53.254;6.456;2022-07-23T07:01:08;1.30;;;1.20;;
14256;SDS011;7212;53.254;6.456;2022-07-23T07:03:34;1.60;;;1.30;;
14256;SDS011;7212;53.254;6.456;2022-07-23T07:06:00;1.67;;;1.20;;
14256;SDS011;7212;53.254;6.456;2022-07-23T07:08:27;1.08;;;1.00;;
14256;SDS011;7212;53.254;6.456;2022-07-23T07:10:52;1.40;;;1.30;;
14256;SDS011;7212;53.254;6.456;2022-07-23T07:13:18;1.20;;;1.10;;
14256;SDS011;7212;53.254;6.456;2022-07-23T07:15:44;1.30;;;1.10;;
14256;SDS011;7212;53.254;6.456;2022-07-23T07:18:09;2.15;;;0.90;;
14256;SDS011;7212;53.254;6.456;2022-07-23T07:20:35;0.93;;;0.90;;
14256;SDS011;7212;53.254;6.456;2022-07-23T07:23:00;0.82;;;0.80;;
14256;SDS011;7212;53.254;6.456;2022-07-23T07:25:26;1.13;;;0.80;;
14256;SDS011;7212;53.254;6.456;2022-07-23T07:27:52;0.70;;;0.70;;
14256;SDS011;7212;53.254;6.456;2022-07-23T07:30:17;1.15;;;0.80;;
14256;SDS011;7212;53.254;6.456;2022-07-23T07:32:43;0.95;;;0.80;;
14256;SDS011;7212;53.254;6.456;2022-07-23T07:35:09;0.80;;;0.80;;
14256;SDS011;7212;53.254;6.456;2022-07-23T07:37:35;0.70;;;0.70;;
14256;SDS011;7212;53.254;6.456;2022-07-23T07:40:00;0.80;;;0.80;;
14256;SDS011;7212;53.254;6.456;2022-07-23T07:42:26;0.70;;;0.70;;
14256;SDS011;7212;53.254;6.456;2022-07-23T07:44:52;0.77;;;0.77;;
14256;SDS011;7212;53.254;6.456;2022-07-23T07:47:17;0.77;;;0.70;;
14256;SDS011;7212;53.254;6.456;2022-07-23T07:49:43;1.13;;;0.80;;
14256;SDS011;7212;53.254;6.456;2022-07-23T07:52:09;0.73;;;0.73;;
14256;SDS011;7212;53.254;6.456;2022-07-23T07:54:35;0.80;;;0.80;;
14256;SDS011;7212;53.254;6.456;2022-07-23T07:57:01;0.80;;;0.73;;
14256;SDS011;7212;53.254;6.456;2022-07-23T07:59:27;0.80;;;0.80;;
14256;SDS011;7212;53.254;6.456;2022-07-23T08:01:52;1.33;;;0.80;;
14256;SDS011;7212;53.254;6.456;2022-07-23T08:04:18;0.70;;;0.60;;
14256;SDS011;7212;53.254;6.456;2022-07-23T08:06:44;0.70;;;0.70;;
14256;SDS011;7212;53.254;6.456;2022-07-23T08:09:10;1.13;;;0.80;;
14256;SDS011;7212;53.254;6.456;2022-07-23T08:11:35;0.85;;;0.70;;
14256;SDS011;7212;53.254;6.456;2022-07-23T08:14:01;0.63;;;0.63;;
14256;SDS011;7212;53.254;6.456;2022-07-23T08:16:27;1.70;;;0.80;;
14256;SDS011;7212;53.254;6.456;2022-07-23T08:18:52;0.80;;;0.80;;
14256;SDS011;7212;53.254;6.456;2022-07-23T08:21:18;1.33;;;0.98;;
14256;SDS011;7212;53.254;6.456;2022-07-23T08:23:44;0.98;;;0.80;;
14256;SDS011;7212;53.254;6.456;2022-07-23T08:26:09;0.70;;;0.70;;
14256;SDS011;7212;53.254;6.456;2022-07-23T08:28:35;0.57;;;0.57;;
14256;SDS011;7212;53.254;6.456;2022-07-23T08:31:01;0.93;;;0.70;;
14256;SDS011;7212;53.254;6.456;2022-07-23T08:33:27;1.35;;;0.90;;
14256;SDS011;7212;53.254;6.456;2022-07-23T08:35:53;0.68;;;0.68;;
14256;SDS011;7212;53.254;6.456;2022-07-23T08:38:19;0.85;;;0.70;;
14256;SDS011;7212;53.254;6.456;2022-07-23T08:40:47;0.70;;;0.70;;
14256;SDS011;7212;53.254;6.456;2022-07-23T08:43:19;0.82;;;0.82;;
14256;SDS011;7212;53.254;6.456;2022-07-23T08:45:48;1.05;;;0.80;;
14256;SDS011;7212;53.254;6.456;2022-07-23T08:48:16;0.80;;;0.80;;
14256;SDS011;7212;53.254;6.456;2022-07-23T08:50:47;1.05;;;0.70;;
14256;SDS011;7212;53.254;6.456;2022-07-23T08:53:14;0.93;;;0.80;;
14256;SDS011;7212;53.254;6.456;2022-07-23T08:55:43;0.85;;;0.70;;
14256;SDS011;7212;53.254;6.456;2022-07-23T08:58:09;1.00;;;0.90;;
14256;SDS011;7212;53.254;6.456;2022-07-23T09:00:35;0.85;;;0.85;;
14256;SDS011;7212;53.254;6.456;2022-07-23T09:03:00;0.88;;;0.88;;
14256;SDS011;7212;53.254;6.456;2022-07-23T09:05:26;1.10;;;1.00;;
14256;SDS011;7212;53.254;6.456;2022-07-23T09:08:03;1.60;;;0.80;;
14256;SDS011;7212;53.254;6.456;2022-07-23T09:10:29;0.73;;;0.73;;
14256;SDS011;7212;53.254;6.456;2022-07-23T09:12:56;0.90;;;0.80;;
14256;SDS011;7212;53.254;6.456;2022-07-23T09:15:22;1.02;;;0.80;;
14256;SDS011;7212;53.254;6.456;2022-07-23T09:17:47;0.82;;;0.80;;
14256;SDS011;7212;53.254;6.456;2022-07-23T09:20:15;1.60;;;0.90;;
14256;SDS011;7212;53.254;6.456;2022-07-23T09:22:45;0.80;;;0.80;;
14256;SDS011;7212;53.254;6.456;2022-07-23T09:25:13;0.75;;;0.70;;
14256;SDS011;7212;53.254;6.456;2022-07-23T09:30:10;0.80;;;0.80;;
14256;SDS011;7212;53.254;6.456;2022-07-23T09:32:36;0.70;;;0.70;;
14256;SDS011;7212;53.254;6.456;2022-07-23T09:35:02;0.80;;;0.80;;
14256;SDS011;7212;53.254;6.456;2022-07-23T09:37:28;1.10;;;0.80;;
14256;SDS011;7212;53.254;6.456;2022-07-23T09:40:02;0.80;;;0.80;;
14256;SDS011;7212;53.254;6.456;2022-07-23T09:42:30;0.70;;;0.70;;
14256;SDS011;7212;53.254;6.456;2022-07-23T09:44:56;1.55;;;0.70;;
14256;SDS011;7212;53.254;6.456;2022-07-23T09:47:23;0.80;;;0.80;;
14256;SDS011;7212;53.254;6.456;2022-07-23T09:50:00;1.05;;;0.90;;
14256;SDS011;7212;53.254;6.456;2022-07-23T09:52:43;0.98;;;0.90;;
14256;SDS011;7212;53.254;6.456;2022-07-23T09:55:12;1.83;;;1.10;;
14256;SDS011;7212;53.254;6.456;2022-07-23T09:57:40;2.58;;;0.85;;
14256;SDS011;7212;53.254;6.456;2022-07-23T10:00:06;0.80;;;0.80;;
14256;SDS011;7212;53.254;6.456;2022-07-23T10:02:35;0.88;;;0.80;;
14256;SDS011;7212;53.254;6.456;2022-07-23T10:05:01;1.15;;;0.88;;
14256;SDS011;7212;53.254;6.456;2022-07-23T10:07:28;0.98;;;0.95;;
14256;SDS011;7212;53.254;6.456;2022-07-23T10:09:59;1.50;;;1.10;;
14256;SDS011;7212;53.254;6.456;2022-07-23T10:12:25;1.73;;;1.10;;
14256;SDS011;7212;53.254;6.456;2022-07-23T10:14:55;1.27;;;0.80;;
14256;SDS011;7212;53.254;6.456;2022-07-23T10:17:22;1.30;;;1.05;;
14256;SDS011;7212;53.254;6.456;2022-07-23T10:19:48;0.75;;;0.73;;
14256;SDS011;7212;53.254;6.456;2022-07-23T10:22:19;1.35;;;0.80;;
14256;SDS011;7212;53.254;6.456;2022-07-23T10:25:04;0.82;;;0.82;;
14256;SDS011;7212;53.254;6.456;2022-07-23T10:35:47;0.75;;;0.75;;
14256;SDS011;7212;53.254;6.456;2022-07-23T10:38:56;0.93;;;0.90;;
14256;SDS011;7212;53.254;6.456;2022-07-23T10:46:54;1.17;;;1.08;;
14256;SDS011;7212;53.254;6.456;2022-07-23T10:49:40;1.17;;;1.08;;
14256;SDS011;7212;53.254;6.456;2022-07-23T10:54:49;1.00;;;1.00;;
14256;SDS011;7212;53.254;6.456;2022-07-23T10:57:20;1.60;;;1.05;;
14256;SDS011;7212;53.254;6.456;2022-07-23T11:02:30;1.42;;;1.05;;
14256;SDS011;7212;53.254;6.456;2022-07-23T11:07:32;1.38;;;1.20;;
14256;SDS011;7212;53.254;6.456;2022-07-23T11:09:59;0.85;;;0.80;;
14256;SDS011;7212;53.254;6.456;2022-07-23T11:17:37;1.02;;;0.85;;
14256;SDS011;7212;53.254;6.456;2022-07-23T11:20:27;1.73;;;1.10;;
14256;SDS011;7212;53.254;6.456;2022-07-23T11:22:56;1.00;;;0.90;;
14256;SDS011;7212;53.254;6.456;2022-07-23T11:27:56;1.08;;;1.08;;
14256;SDS011;7212;53.254;6.456;2022-07-23T11:30:38;1.50;;;1.00;;
14256;SDS011;7212;53.254;6.456;2022-07-23T11:35:33;1.13;;;0.90;;
14256;SDS011;7212;53.254;6.456;2022-07-23T11:38:05;0.80;;;0.80;;
14256;SDS011;7212;53.254;6.456;2022-07-23T11:40:39;1.10;;;0.90;;
14256;SDS011;7212;53.254;6.456;2022-07-23T11:43:06;1.15;;;1.05;;
14256;SDS011;7212;53.254;6.456;2022-07-23T11:45:34;1.50;;;1.10;;
14256;SDS011;7212;53.254;6.456;2022-07-23T11:48:02;1.35;;;1.10;;
14256;SDS011;7212;53.254;6.456;2022-07-23T11:50:29;1.73;;;1.20;;
14256;SDS011;7212;53.254;6.456;2022-07-23T11:52:55;2.80;;;1.20;;
14256;SDS011;7212;53.254;6.456;2022-07-23T11:55:20;1.25;;;1.00;;
14256;SDS011;7212;53.254;6.456;2022-07-23T11:57:46;1.63;;;1.20;;
14256;SDS011;7212;53.254;6.456;2022-07-23T12:00:16;0.98;;;0.85;;
14256;SDS011;7212;53.254;6.456;2022-07-23T12:03:01;1.00;;;0.90;;
14256;SDS011;7212;53.254;6.456;2022-07-23T12:05:32;1.17;;;1.00;;
14256;SDS011;7212;53.254;6.456;2022-07-23T12:08:01;1.52;;;1.10;;
14256;SDS011;7212;53.254;6.456;2022-07-23T12:10:35;1.13;;;1.00;;
14256;SDS011;7212;53.254;6.456;2022-07-23T12:13:09;1.30;;;1.00;;
14256;SDS011;7212;53.254;6.456;2022-07-23T12:15:41;0.98;;;0.88;;
14256;SDS011;7212;53.254;6.456;2022-07-23T12:18:12;1.05;;;0.95;;
14256;SDS011;7212;53.254;6.456;2022-07-23T12:20:50;0.80;;;0.80;;
14256;SDS011;7212;53.254;6.456;2022-07-23T12:23:21;1.23;;;0.90;;
14256;SDS011;7212;53.254;6.456;2022-07-23T12:25:49;1.20;;;1.00;;
14256;SDS011;7212;53.254;6.456;2022-07-23T12:28:26;1.45;;;1.17;;
14256;SDS011;7212;53.254;6.456;2022-07-23T12:30:54;0.95;;;0.85;;
14256;SDS011;7212;53.254;6.456;2022-07-23T12:33:22;0.95;;;0.80;;
14256;SDS011;7212;53.254;6.456;2022-07-23T12:35:48;0.90;;;0.90;;
14256;SDS011;7212;53.254;6.456;2022-07-23T12:38:15;2.05;;;0.90;;
14256;SDS011;7212;53.254;6.456;2022-07-23T12:40:45;2.85;;;0.90;;
14256;SDS011;7212;53.254;6.456;2022-07-23T12:43:33;1.10;;;0.82;;
14256;SDS011;7212;53.254;6.456;2022-07-23T12:46:03;0.80;;;0.80;;
14256;SDS011;7212;53.254;6.456;2022-07-23T12:48:30;1.10;;;1.00;;
14256;SDS011;7212;53.254;6.456;2022-07-23T12:51:06;2.05;;;0.90;;
14256;SDS011;7212;53.254;6.456;2022-07-23T12:53:46;0.82;;;0.82;;
14256;SDS011;7212;53.254;6.456;2022-07-23T12:56:17;1.13;;;0.90;;
14256;SDS011;7212;53.254;6.456;2022-07-23T12:58:46;1.02;;;0.95;;
14256;SDS011;7212;53.254;6.456;2022-07-23T13:06:45;1.08;;;0.90;;
14256;SDS011;7212;53.254;6.456;2022-07-23T13:09:15;1.15;;;1.00;;
14256;SDS011;7212;53.254;6.456;2022-07-23T13:11:43;1.38;;;1.08;;
14256;SDS011;7212;53.254;6.456;2022-07-23T13:14:10;0.80;;;0.77;;
14256;SDS011;7212;53.254;6.456;2022-07-23T13:16:37;2.00;;;1.00;;
14256;SDS011;7212;53.254;6.456;2022-07-23T13:19:02;0.93;;;0.85;;
14256;SDS011;7212;53.254;6.456;2022-07-23T13:21:28;2.08;;;1.10;;
14256;SDS011;7212;53.254;6.456;2022-07-23T13:23:54;4.15;;;1.33;;
14256;SDS011;7212;53.254;6.456;2022-07-23T13:26:21;4.38;;;1.48;;
14256;SDS011;7212;53.254;6.456;2022-07-23T13:28:47;4.78;;;1.33;;
14256;SDS011;7212;53.254;6.456;2022-07-23T13:31:12;3.58;;;1.63;;
14256;SDS011;7212;53.254;6.456;2022-07-23T13:33:38;3.97;;;2.22;;
14256;SDS011;7212;53.254;6.456;2022-07-23T13:36:04;2.20;;;1.52;;
14256;SDS011;7212;53.254;6.456;2022-07-23T13:38:30;1.90;;;1.42;;
14256;SDS011;7212;53.254;6.456;2022-07-23T13:40:56;1.48;;;1.38;;
14256;SDS011;7212;53.254;6.456;2022-07-23T13:43:23;1.52;;;1.10;;
14256;SDS011;7212;53.254;6.456;2022-07-23T13:45:50;1.60;;;1.30;;
14256;SDS011;7212;53.254;6.456;2022-07-23T13:48:16;1.67;;;1.30;;
14256;SDS011;7212;53.254;6.456;2022-07-23T13:50:43;2.30;;;1.48;;
14256;SDS011;7212;53.254;6.456;2022-07-23T13:53:10;1.33;;;1.10;;
14256;SDS011;7212;53.254;6.456;2022-07-23T13:55:38;1.20;;;1.00;;
14256;SDS011;7212;53.254;6.456;2022-07-23T13:58:05;2.05;;;1.48;;
14256;SDS011;7212;53.254;6.456;2022-07-23T14:00:33;2.97;;;2.00;;
14256;SDS011;7212;53.254;6.456;2022-07-23T14:03:00;2.35;;;1.75;;
14256;SDS011;7212;53.254;6.456;2022-07-23T14:05:26;1.38;;;1.10;;
14256;SDS011;7212;53.254;6.456;2022-07-23T14:07:52;2.08;;;1.30;;
14256;SDS011;7212;53.254;6.456;2022-07-23T14:10:19;1.40;;;1.30;;
14256;SDS011;7212;53.254;6.456;2022-07-23T14:12:46;1.30;;;1.17;;
14256;SDS011;7212;53.254;6.456;2022-07-23T14:15:13;1.30;;;1.17;;
14256;SDS011;7212;53.254;6.456;2022-07-23T14:17:40;2.25;;;1.38;;
14256;SDS011;7212;53.254;6.456;2022-07-23T14:20:08;1.63;;;1.17;;
14256;SDS011;7212;53.254;6.456;2022-07-23T14:22:35;1.02;;;0.93;;
14256;SDS011;7212;53.254;6.456;2022-07-23T14:25:01;1.33;;;0.93;;
14256;SDS011;7212;53.254;6.456;2022-07-23T14:27:28;2.22;;;1.15;;
14256;SDS011;7212;53.254;6.456;2022-07-23T14:29:53;3.78;;;1.08;;
14256;SDS011;7212;53.254;6.456;2022-07-23T14:32:20;2.00;;;1.05;;
14256;SDS011;7212;53.254;6.456;2022-07-23T14:34:46;1.33;;;1.00;;
14256;SDS011;7212;53.254;6.456;2022-07-23T14:37:12;1.20;;;1.10;;
14256;SDS011;7212;53.254;6.456;2022-07-23T14:39:38;1.30;;;0.95;;
14256;SDS011;7212;53.254;6.456;2022-07-23T14:42:05;1.02;;;0.80;;
14256;SDS011;7212;53.254;6.456;2022-07-23T14:44:32;1.48;;;1.20;;
14256;SDS011;7212;53.254;6.456;2022-07-23T14:46:58;1.00;;;0.90;;
14256;SDS011;7212;53.254;6.456;2022-07-23T14:49:25;1.30;;;0.93;;
14256;SDS011;7212;53.254;6.456;2022-07-23T14:51:51;1.10;;;0.90;;
14256;SDS011;7212;53.254;6.456;2022-07-23T14:54:16;1.45;;;1.10;;
14256;SDS011;7212;53.254;6.456;2022-07-23T14:56:42;1.35;;;1.00;;
14256;SDS011;7212;53.254;6.456;2022-07-23T14:59:08;1.75;;;1.05;;
14256;SDS011;7212;53.254;6.456;2022-07-23T15:01:34;1.40;;;0.80;;
14256;SDS011;7212;53.254;6.456;2022-07-23T15:04:01;1.25;;;0.90;;
14256;SDS011;7212;53.254;6.456;2022-07-23T15:06:27;1.67;;;1.00;;
14256;SDS011;7212;53.254;6.456;2022-07-23T15:08:53;1.35;;;1.00;;
14256;SDS011;7212;53.254;6.456;2022-07-23T15:11:19;1.23;;;1.08;;
14256;SDS011;7212;53.254;6.456;2022-07-23T15:13:45;1.25;;;0.95;;
14256;SDS011;7212;53.254;6.456;2022-07-23T15:16:10;1.33;;;1.00;;
14256;SDS011;7212;53.254;6.456;2022-07-23T15:18:36;1.05;;;0.95;;
14256;SDS011;7212;53.254;6.456;2022-07-23T15:21:02;1.20;;;0.90;;
14256;SDS011;7212;53.254;6.456;2022-07-23T15:23:28;1.08;;;0.90;;
14256;SDS011;7212;53.254;6.456;2022-07-23T15:25:54;1.17;;;0.90;;
14256;SDS011;7212;53.254;6.456;2022-07-23T15:28:20;2.03;;;1.42;;
14256;SDS011;7212;53.254;6.456;2022-07-23T15:30:46;0.95;;;0.88;;
14256;SDS011;7212;53.254;6.456;2022-07-23T15:33:12;2.35;;;1.10;;
14256;SDS011;7212;53.254;6.456;2022-07-23T15:35:38;1.45;;;1.20;;
14256;SDS011;7212;53.254;6.456;2022-07-23T15:38:03;1.58;;;0.95;;